createdAt,value
2022-12-01T00:01:45.588Z,61.98
2022-12-01T00:04:11.895Z,62.59
2022-12-01T00:06:38.145Z,62.90
2022-12-01T00:09:04.410Z,62.66
2022-12-01T00:11:30.665Z,62.95
2022-12-01T00:13:56.928Z,62.17
2022-12-01T00:16:23.290Z,62.37
2022-12-01T00:18:49.566Z,61.99
2022-12-01T00:21:15.842Z,61.76
2022-12-01T00:23:42.087Z,62.23
2022-12-01T00:26:08.346Z,62.15
2022-12-01T00:28:34.623Z,62.04
2022-12-01T00:31:00.883Z,62.18
2022-12-01T00:33:27.144Z,61.90
2022-12-01T00:35:53.390Z,62.07
2022-12-01T00:38:19.661Z,62.19
2022-12-01T00:40:45.920Z,61.96
2022-12-01T00:43:12.167Z,61.87
2022-12-01T00:45:38.514Z,62.25
2022-12-01T00:48:04.770Z,62.44
2022-12-01T00:50:31.011Z,62.68
2022-12-01T00:52:57.256Z,62.13
2022-12-01T00:55:23.517Z,61.76
2022-12-01T00:57:49.773Z,61.79
2022-12-01T01:00:16.046Z,61.51
2022-12-01T01:02:42.299Z,61.43
2022-12-01T01:05:08.594Z,61.70
2022-12-01T01:07:34.889Z,61.62
2022-12-01T01:10:01.154Z,61.75
2022-12-01T01:12:27.395Z,61.48
2022-12-01T01:14:53.650Z,61.48
2022-12-01T01:17:19.894Z,61.47
2022-12-01T01:19:46.413Z,61.49
2022-12-01T01:22:12.785Z,61.50
2022-12-01T01:24:39.030Z,61.70
2022-12-01T01:27:05.273Z,61.54
2022-12-01T01:29:31.526Z,61.30
2022-12-01T01:31:57.785Z,61.33
2022-12-01T01:34:24.039Z,61.04
2022-12-01T01:36:50.341Z,60.86
2022-12-01T01:39:16.602Z,60.84
2022-12-01T01:41:42.857Z,60.39
2022-12-01T01:44:09.120Z,60.81
2022-12-01T01:46:35.421Z,61.07
2022-12-01T01:49:01.698Z,61.34
2022-12-01T01:51:27.948Z,61.14
2022-12-01T01:53:54.181Z,60.77
2022-12-01T01:56:20.429Z,61.24
2022-12-01T01:58:46.666Z,61.36
2022-12-01T02:01:12.929Z,61.26
2022-12-01T02:03:39.209Z,60.98
2022-12-01T02:06:05.470Z,61.26
2022-12-01T02:08:31.707Z,61.02
2022-12-01T02:10:57.974Z,60.14
2022-12-01T02:13:24.231Z,60.26
2022-12-01T02:15:50.462Z,60.32
2022-12-01T02:18:16.720Z,60.69
2022-12-01T02:20:42.968Z,60.48
2022-12-01T02:23:09.208Z,60.61
2022-12-01T02:25:35.487Z,60.06
2022-12-01T02:28:01.753Z,60.12
2022-12-01T02:30:28.027Z,59.56
2022-12-01T02:32:54.345Z,60.10
2022-12-01T02:35:20.597Z,59.59
2022-12-01T02:37:46.855Z,59.32
2022-12-01T02:40:13.123Z,58.80
2022-12-01T02:42:39.380Z,58.60
2022-12-01T02:45:05.649Z,59.66
2022-12-01T02:47:31.882Z,59.77
2022-12-01T02:49:58.173Z,59.55
2022-12-01T02:52:24.462Z,59.62
2022-12-01T02:54:50.701Z,59.36
2022-12-01T02:57:16.967Z,59.20
2022-12-01T02:59:43.228Z,58.96
2022-12-01T03:02:09.580Z,59.14
2022-12-01T03:04:35.864Z,59.63
2022-12-01T03:07:02.118Z,59.49
2022-12-01T03:09:28.374Z,58.94
2022-12-01T03:11:54.628Z,59.25
2022-12-01T03:14:20.886Z,59.54
2022-12-01T03:16:47.129Z,59.08
2022-12-01T03:19:13.381Z,59.35
2022-12-01T03:21:39.633Z,59.69
2022-12-01T03:24:05.874Z,58.92
2022-12-01T03:26:32.137Z,59.12
2022-12-01T03:28:58.389Z,59.08
2022-12-01T03:31:24.704Z,59.34
2022-12-01T03:33:51.002Z,59.00
2022-12-01T03:36:17.263Z,58.66
2022-12-01T03:38:43.511Z,58.92
2022-12-01T03:41:09.782Z,59.06
2022-12-01T03:43:36.022Z,58.60
2022-12-01T03:46:02.384Z,59.03
2022-12-01T03:48:28.652Z,59.05
2022-12-01T03:50:54.899Z,59.36
2022-12-01T03:53:21.148Z,59.40
2022-12-01T03:55:47.401Z,59.09
2022-12-01T03:58:13.656Z,58.72
2022-12-01T04:00:39.917Z,58.78
2022-12-01T04:03:06.280Z,58.86
2022-12-01T04:05:32.589Z,58.26
2022-12-01T04:07:58.883Z,59.22
2022-12-01T04:10:25.162Z,58.66
2022-12-01T04:12:51.398Z,59.10
2022-12-01T04:15:17.666Z,58.81
2022-12-01T04:17:43.906Z,58.84
2022-12-01T04:20:10.149Z,59.03
2022-12-01T04:22:36.396Z,58.95
2022-12-01T04:25:02.716Z,59.08
2022-12-01T04:27:28.970Z,58.67
2022-12-01T04:29:55.214Z,58.88
2022-12-01T04:32:21.582Z,58.97
2022-12-01T04:34:47.841Z,58.81
2022-12-01T04:37:14.104Z,59.19
2022-12-01T04:39:40.358Z,58.64
2022-12-01T04:42:06.614Z,59.28
2022-12-01T04:44:35.077Z,59.08
2022-12-01T04:47:01.651Z,58.65
2022-12-01T04:49:27.973Z,58.80
2022-12-01T04:51:54.214Z,58.99
2022-12-01T04:54:20.465Z,59.52
2022-12-01T04:56:46.743Z,59.49
2022-12-01T04:59:12.982Z,59.08
2022-12-01T05:01:39.275Z,59.33
2022-12-01T05:04:05.610Z,59.50
2022-12-01T05:06:31.860Z,59.32
2022-12-01T05:08:58.113Z,59.62
2022-12-01T05:11:24.398Z,60.09
2022-12-01T05:13:50.637Z,60.22
2022-12-01T05:16:16.945Z,60.62
2022-12-01T05:18:43.237Z,60.32
2022-12-01T05:21:09.531Z,59.89
2022-12-01T05:23:35.783Z,60.19
2022-12-01T05:26:02.022Z,60.17
2022-12-01T05:28:28.257Z,60.18
2022-12-01T05:30:54.509Z,59.87
2022-12-01T05:33:20.772Z,59.32
2022-12-01T05:35:47.060Z,59.03
2022-12-01T05:38:13.329Z,59.25
2022-12-01T05:40:39.574Z,59.53
2022-12-01T05:43:05.825Z,59.74
2022-12-01T05:45:32.128Z,59.74
2022-12-01T05:47:58.497Z,59.35
2022-12-01T05:50:24.741Z,59.53
2022-12-01T05:52:50.981Z,59.06
2022-12-01T05:55:17.237Z,59.37
2022-12-01T05:57:43.502Z,59.09
2022-12-01T06:00:09.748Z,60.01
2022-12-01T06:02:35.998Z,60.24
2022-12-01T06:05:02.239Z,59.99
2022-12-01T06:07:28.549Z,60.52
2022-12-01T06:09:54.805Z,60.55
2022-12-01T06:12:21.092Z,60.79
2022-12-01T06:14:47.355Z,60.83
2022-12-01T06:17:13.595Z,60.92
2022-12-01T06:19:39.837Z,60.83
2022-12-01T06:22:06.093Z,61.41
2022-12-01T06:24:32.343Z,61.46
2022-12-01T06:26:58.591Z,61.44
2022-12-01T06:29:24.842Z,61.53
2022-12-01T06:31:51.185Z,61.36
2022-12-01T06:34:17.494Z,61.23
2022-12-01T06:36:43.748Z,61.85
2022-12-01T06:39:10.005Z,61.42
2022-12-01T06:41:36.275Z,60.99
2022-12-01T06:44:02.513Z,62.97
2022-12-01T06:46:28.812Z,60.93
2022-12-01T06:48:55.129Z,61.07
2022-12-01T06:51:21.384Z,60.68
2022-12-01T06:53:47.630Z,60.05
2022-12-01T06:56:13.890Z,60.47
2022-12-01T06:58:40.314Z,60.48
2022-12-01T07:01:06.719Z,59.82
2022-12-01T07:03:32.974Z,59.83
2022-12-01T07:05:59.234Z,60.02
2022-12-01T07:08:25.495Z,59.92
2022-12-01T07:10:51.762Z,59.83
2022-12-01T07:13:18.005Z,59.96
2022-12-01T07:15:44.270Z,59.90
2022-12-01T07:18:10.529Z,59.79
2022-12-01T07:20:36.789Z,59.94
2022-12-01T07:23:03.044Z,59.85
2022-12-01T07:25:30.401Z,60.26
2022-12-01T07:27:56.651Z,60.54
2022-12-01T07:30:28.094Z,59.79
2022-12-01T07:32:54.748Z,59.71
2022-12-01T07:35:21.013Z,59.42
2022-12-01T07:37:47.292Z,58.90
2022-12-01T07:40:13.550Z,59.81
2022-12-01T07:42:39.791Z,59.57
2022-12-01T07:45:06.041Z,59.43
2022-12-01T07:47:32.282Z,59.95
2022-12-01T07:49:58.525Z,59.97
2022-12-01T07:52:24.777Z,59.29
2022-12-01T07:54:51.037Z,59.30
2022-12-01T07:57:17.306Z,59.54
2022-12-01T07:59:43.564Z,59.67
2022-12-01T08:02:09.905Z,59.47
2022-12-01T08:04:36.233Z,59.18
2022-12-01T08:07:02.515Z,59.17
2022-12-01T08:09:28.760Z,59.45
2022-12-01T08:11:55.137Z,58.78
2022-12-01T08:14:21.413Z,58.78
2022-12-01T08:16:47.669Z,59.36
2022-12-01T08:19:13.926Z,59.26
2022-12-01T08:21:40.175Z,58.48
2022-12-01T08:24:06.418Z,58.34
2022-12-01T08:26:32.683Z,58.72
2022-12-01T08:28:58.957Z,58.55
2022-12-01T08:31:25.261Z,58.41
2022-12-01T08:33:51.572Z,58.63
2022-12-01T08:36:17.832Z,58.70
2022-12-01T08:38:44.087Z,58.93
2022-12-01T08:41:10.359Z,58.88
2022-12-01T08:46:22.959Z,58.59
2022-12-01T08:48:49.263Z,58.59
2022-12-01T08:51:15.521Z,58.68
2022-12-01T08:53:45.422Z,58.51
2022-12-01T08:56:12.197Z,58.21
2022-12-01T08:58:38.440Z,58.24
2022-12-01T09:01:04.697Z,58.04
2022-12-01T09:03:30.965Z,58.56
2022-12-01T09:05:57.224Z,57.62
2022-12-01T09:08:23.469Z,57.36
2022-12-01T09:10:49.723Z,57.86
2022-12-01T09:13:15.956Z,57.19
2022-12-01T09:15:42.194Z,57.40
2022-12-01T09:18:08.437Z,57.47
2022-12-01T09:20:34.682Z,58.09
2022-12-01T09:23:00.946Z,57.03
2022-12-01T09:25:27.190Z,57.60
2022-12-01T09:27:53.455Z,57.64
2022-12-01T09:30:19.713Z,57.34
2022-12-01T09:32:45.977Z,57.97
2022-12-01T09:35:12.226Z,57.81
2022-12-01T09:37:38.492Z,57.51
2022-12-01T09:40:04.757Z,57.50
2022-12-01T09:42:35.317Z,57.81
2022-12-01T09:45:01.978Z,57.32
2022-12-01T09:47:28.245Z,56.98
2022-12-01T09:49:54.688Z,57.75
2022-12-01T09:52:20.941Z,57.62
2022-12-01T09:54:47.182Z,57.65
2022-12-01T09:57:13.442Z,57.58
2022-12-01T09:59:39.704Z,57.79
2022-12-01T10:02:05.970Z,57.20
2022-12-01T10:04:32.237Z,57.39
2022-12-01T10:06:58.498Z,57.04
2022-12-01T10:09:24.741Z,56.98
2022-12-01T10:11:50.995Z,57.66
2022-12-01T10:14:19.952Z,56.56
2022-12-01T10:16:46.958Z,56.98
2022-12-01T10:19:13.217Z,57.25
2022-12-01T10:21:39.461Z,56.51
2022-12-01T10:24:05.725Z,57.19
2022-12-01T10:26:31.990Z,56.25
2022-12-01T10:28:58.241Z,57.28
2022-12-01T10:31:24.541Z,57.21
2022-12-01T10:33:50.809Z,57.40
2022-12-01T10:36:17.057Z,56.90
2022-12-01T10:38:43.301Z,56.89
2022-12-01T10:41:09.561Z,56.47
2022-12-01T10:43:35.817Z,55.71
2022-12-01T10:46:02.113Z,55.29
2022-12-01T10:48:28.383Z,55.51
2022-12-01T10:50:54.637Z,56.25
2022-12-01T10:53:20.901Z,55.96
2022-12-01T10:55:48.188Z,55.35
2022-12-01T10:58:14.506Z,55.38
2022-12-01T11:00:58.969Z,55.23
2022-12-01T11:03:25.887Z,54.99
2022-12-01T11:05:52.302Z,54.66
2022-12-01T11:08:18.554Z,55.29
2022-12-01T11:10:44.920Z,55.29
2022-12-01T11:13:11.183Z,55.00
2022-12-01T11:15:37.423Z,54.97
2022-12-01T11:18:03.681Z,55.58
2022-12-01T11:20:29.940Z,56.11
2022-12-01T11:22:56.208Z,56.32
2022-12-01T11:25:22.436Z,55.68
2022-12-01T11:27:48.693Z,55.72
2022-12-01T11:30:15.050Z,56.34
2022-12-01T11:32:41.337Z,56.25
2022-12-01T11:35:07.594Z,55.76
2022-12-01T11:37:33.878Z,56.23
2022-12-01T11:40:00.133Z,56.30
2022-12-01T11:42:26.393Z,55.63
2022-12-01T11:44:52.664Z,55.28
2022-12-01T11:47:23.800Z,54.35
2022-12-01T11:49:50.875Z,54.56
2022-12-01T11:52:17.227Z,55.45
2022-12-01T11:54:43.587Z,55.79
2022-12-01T11:57:33.101Z,55.13
2022-12-01T11:59:56.260Z,53.52
2022-12-01T12:02:22.599Z,54.54
2022-12-01T12:04:48.895Z,54.43
2022-12-01T12:07:15.137Z,54.92
2022-12-01T12:09:45.818Z,52.46
2022-12-01T12:12:12.148Z,53.70
2022-12-01T12:14:38.394Z,53.04
2022-12-01T12:17:04.641Z,53.06
2022-12-01T12:19:34.239Z,52.97
2022-12-01T12:22:11.643Z,53.24
2022-12-01T12:24:37.888Z,53.24
2022-12-01T12:27:04.131Z,53.18
2022-12-01T12:29:30.363Z,53.86
2022-12-01T12:31:56.615Z,54.41
2022-12-01T12:34:22.882Z,53.74
2022-12-01T12:36:49.138Z,55.34
2022-12-01T12:39:16.955Z,54.49
2022-12-01T12:41:43.433Z,53.86
2022-12-01T12:44:09.678Z,55.14
2022-12-01T12:46:35.960Z,53.89
2022-12-01T12:51:48.542Z,53.66
2022-12-01T12:54:14.862Z,53.59
2022-12-01T12:56:41.177Z,54.36
2022-12-01T12:59:07.421Z,54.22
2022-12-01T13:01:33.737Z,54.67
2022-12-01T13:04:00.056Z,55.15
2022-12-01T13:06:26.322Z,55.11
2022-12-01T13:08:52.557Z,55.10
2022-12-01T13:11:18.875Z,55.03
2022-12-01T13:13:45.149Z,54.97
2022-12-01T13:16:11.428Z,54.87
2022-12-01T13:18:37.730Z,54.50
2022-12-01T13:21:04.009Z,54.24
2022-12-01T13:23:30.269Z,54.41
2022-12-01T13:25:56.509Z,54.87
2022-12-01T13:28:22.751Z,54.02
2022-12-01T13:30:49.079Z,54.36
2022-12-01T13:33:15.496Z,54.22
2022-12-01T13:35:41.776Z,54.11
2022-12-01T13:38:08.022Z,54.71
2022-12-01T13:40:34.271Z,55.09
2022-12-01T13:43:04.232Z,55.41
2022-12-01T13:45:34.751Z,55.00
2022-12-01T13:48:01.005Z,55.32
2022-12-01T13:50:27.273Z,55.93
2022-12-01T13:52:53.528Z,55.85
2022-12-01T13:55:19.777Z,55.84
2022-12-01T13:57:46.036Z,55.53
2022-12-01T14:00:12.377Z,55.19
2022-12-01T14:02:38.833Z,55.20
2022-12-01T14:05:05.155Z,55.17
2022-12-01T14:07:31.485Z,54.91
2022-12-01T14:09:57.793Z,55.53
2022-12-01T14:12:24.038Z,55.25
2022-12-01T14:14:50.293Z,55.51
2022-12-01T14:17:16.552Z,56.35
2022-12-01T14:19:42.827Z,56.29
2022-12-01T14:22:09.075Z,56.03
2022-12-01T14:24:35.321Z,55.56
2022-12-01T14:27:01.595Z,55.71
2022-12-01T14:29:27.837Z,55.16
2022-12-01T14:31:54.094Z,55.08
2022-12-01T14:34:20.343Z,55.48
2022-12-01T14:36:46.606Z,55.58
2022-12-01T14:39:12.873Z,55.72
2022-12-01T14:41:39.132Z,56.13
2022-12-01T14:44:05.387Z,58.10
2022-12-01T14:46:31.645Z,56.20
2022-12-01T14:48:57.914Z,55.77
2022-12-01T14:51:24.173Z,55.44
2022-12-01T14:53:50.441Z,55.04
2022-12-01T14:56:16.694Z,54.96
2022-12-01T14:58:42.938Z,56.25
2022-12-01T15:01:09.323Z,56.12
2022-12-01T15:03:35.719Z,55.50
2022-12-01T15:06:01.961Z,56.41
2022-12-01T15:11:14.453Z,56.75
2022-12-01T15:13:40.732Z,56.53
2022-12-01T15:16:07.019Z,56.62
2022-12-01T15:18:33.301Z,56.23
2022-12-01T15:20:59.548Z,56.05
2022-12-01T15:23:25.791Z,56.31
2022-12-01T15:25:52.035Z,55.52
2022-12-01T15:28:18.283Z,56.47
2022-12-01T15:30:44.547Z,56.69
2022-12-01T15:33:10.801Z,57.06
2022-12-01T15:35:37.065Z,57.87
2022-12-01T15:38:03.442Z,57.39
2022-12-01T15:43:15.905Z,57.17
2022-12-01T15:45:42.196Z,57.04
2022-12-01T15:48:08.454Z,56.75
2022-12-01T15:50:34.699Z,56.78
2022-12-01T15:53:00.940Z,56.47
2022-12-01T15:55:27.222Z,55.82
2022-12-01T15:57:53.489Z,56.24
2022-12-01T16:00:19.734Z,56.17
2022-12-01T16:02:46.946Z,56.33
2022-12-01T16:05:13.315Z,56.50
2022-12-01T16:08:11.531Z,56.49
2022-12-01T16:10:25.801Z,56.69
2022-12-01T16:12:52.077Z,56.80
2022-12-01T16:15:18.378Z,56.43
2022-12-01T16:17:44.815Z,56.62
2022-12-01T16:20:11.078Z,57.13
2022-12-01T16:22:37.337Z,56.91
2022-12-01T16:25:03.612Z,56.95
2022-12-01T16:27:29.902Z,56.67
2022-12-01T16:29:56.160Z,57.28
2022-12-01T16:32:22.538Z,56.38
2022-12-01T16:34:48.897Z,56.95
2022-12-01T16:37:15.158Z,57.26
2022-12-01T16:39:41.430Z,57.02
2022-12-01T16:42:07.720Z,57.12
2022-12-01T16:44:34.036Z,57.45
2022-12-01T16:47:00.282Z,57.35
2022-12-01T16:49:26.547Z,57.71
2022-12-01T16:51:57.044Z,57.68
2022-12-01T16:54:23.745Z,58.20
2022-12-01T16:56:50.003Z,58.33
2022-12-01T16:59:16.244Z,57.91
2022-12-01T17:01:42.537Z,58.04
2022-12-01T17:04:08.877Z,58.27
2022-12-01T17:06:35.130Z,58.33
2022-12-01T17:09:01.401Z,58.22
2022-12-01T17:11:27.657Z,58.22
2022-12-01T17:13:53.929Z,58.73
2022-12-01T17:16:20.205Z,58.59
2022-12-01T17:18:46.576Z,58.70
2022-12-01T17:21:12.836Z,58.58
2022-12-01T17:23:39.112Z,58.90
2022-12-01T17:26:05.362Z,58.67
2022-12-01T17:28:31.619Z,59.29
2022-12-01T17:30:57.950Z,58.80
2022-12-01T17:33:24.218Z,58.81
2022-12-01T17:35:50.466Z,58.79
2022-12-01T17:38:16.732Z,59.02
2022-12-01T17:40:42.982Z,59.25
2022-12-01T17:43:09.223Z,59.15
2022-12-01T17:45:35.466Z,59.25
2022-12-01T17:48:01.728Z,59.26
2022-12-01T17:50:27.997Z,59.22
2022-12-01T17:52:54.260Z,58.86
2022-12-01T17:55:20.513Z,58.64
2022-12-01T17:57:46.853Z,59.05
2022-12-01T18:00:13.117Z,58.83
2022-12-01T18:02:39.442Z,58.94
2022-12-01T18:05:05.880Z,59.35
2022-12-01T18:07:32.205Z,59.23
2022-12-01T18:09:58.506Z,59.23
2022-12-01T18:12:24.746Z,59.37
2022-12-01T18:14:51.356Z,59.12
2022-12-01T18:17:17.760Z,59.40
2022-12-01T18:19:44.009Z,59.42
2022-12-01T18:22:10.254Z,59.65
2022-12-01T18:24:36.557Z,58.84
2022-12-01T18:27:02.794Z,59.32
2022-12-01T18:29:29.052Z,58.90
2022-12-01T18:31:55.307Z,59.39
2022-12-01T18:34:21.577Z,59.43
2022-12-01T18:36:47.824Z,59.20
2022-12-01T18:39:14.074Z,59.40
2022-12-01T18:41:40.318Z,58.80
2022-12-01T18:44:06.585Z,58.85
2022-12-01T18:46:32.891Z,59.20
2022-12-01T18:48:59.171Z,59.54
2022-12-01T18:51:25.440Z,58.87
2022-12-01T18:53:51.682Z,59.46
2022-12-01T18:56:19.787Z,59.32
2022-12-01T18:58:46.220Z,59.73
2022-12-01T19:01:12.575Z,59.44
2022-12-01T19:03:38.898Z,59.49
2022-12-01T19:06:05.167Z,59.83
2022-12-01T19:08:31.419Z,59.46
2022-12-01T19:10:57.661Z,59.59
2022-12-01T19:13:23.915Z,60.04
2022-12-01T19:15:50.219Z,59.38
2022-12-01T19:18:16.512Z,59.58
2022-12-01T19:20:42.757Z,59.52
2022-12-01T19:23:09.004Z,59.52
2022-12-01T19:25:35.247Z,59.93
2022-12-01T19:28:01.491Z,60.13
2022-12-01T19:30:27.746Z,59.99
2022-12-01T19:32:53.987Z,59.56
2022-12-01T19:35:20.251Z,59.77
2022-12-01T19:37:46.519Z,59.87
2022-12-01T19:40:12.771Z,60.10
2022-12-01T19:42:39.012Z,59.90
2022-12-01T19:45:05.271Z,59.61
2022-12-01T19:47:31.535Z,59.10
2022-12-01T19:49:57.804Z,59.39
2022-12-01T19:52:24.056Z,59.11
2022-12-01T19:54:50.593Z,59.19
2022-12-01T19:57:16.992Z,59.51
2022-12-01T19:59:43.261Z,59.66
2022-12-01T20:02:09.554Z,59.76
2022-12-01T20:04:35.844Z,59.60
2022-12-01T20:07:02.107Z,60.05
2022-12-01T20:09:28.373Z,59.28
2022-12-01T20:11:54.631Z,59.35
2022-12-01T20:14:20.889Z,60.01
2022-12-01T20:16:47.246Z,59.92
2022-12-01T20:19:13.541Z,59.90
2022-12-01T20:21:39.801Z,59.84
2022-12-01T20:24:06.063Z,59.63
2022-12-01T20:26:32.325Z,60.17
2022-12-01T20:28:58.578Z,59.76
2022-12-01T20:31:24.860Z,59.98
2022-12-01T20:33:51.127Z,60.15
2022-12-01T20:36:17.380Z,59.60
2022-12-01T20:38:43.641Z,59.79
2022-12-01T20:41:09.901Z,59.84
2022-12-01T20:43:36.147Z,60.06
2022-12-01T20:46:02.643Z,59.71
2022-12-01T20:48:28.978Z,60.21
2022-12-01T20:50:55.222Z,60.28
2022-12-01T20:53:21.482Z,60.38
2022-12-01T20:55:47.730Z,59.94
2022-12-01T20:58:13.970Z,60.46
2022-12-01T21:00:40.266Z,60.08
2022-12-01T21:03:06.562Z,60.83
2022-12-01T21:05:32.816Z,60.58
2022-12-01T21:07:59.127Z,60.55
2022-12-01T21:10:25.422Z,60.17
2022-12-01T21:12:51.681Z,60.47
2022-12-01T21:15:17.929Z,60.44
2022-12-01T21:17:44.186Z,60.74
2022-12-01T21:20:10.457Z,60.50
2022-12-01T21:22:36.720Z,60.14
2022-12-01T21:25:02.985Z,60.38
2022-12-01T21:27:29.357Z,60.32
2022-12-01T21:29:55.621Z,60.54
2022-12-01T21:32:21.883Z,60.30
2022-12-01T21:34:48.297Z,59.90
2022-12-01T21:37:14.693Z,59.75
2022-12-01T21:39:40.954Z,60.33
2022-12-01T21:42:07.219Z,60.47
2022-12-01T21:44:33.473Z,60.69
2022-12-01T21:46:59.715Z,60.56
2022-12-01T21:49:25.969Z,60.45
2022-12-01T21:51:52.225Z,60.09
2022-12-01T21:54:18.501Z,59.43
2022-12-01T21:56:44.768Z,59.96
2022-12-01T21:59:11.032Z,60.35
2022-12-01T22:01:37.309Z,60.50
2022-12-01T22:04:03.653Z,60.16
2022-12-01T22:06:30.784Z,60.65
2022-12-01T22:08:57.359Z,60.27
2022-12-01T22:11:23.617Z,60.51
2022-12-01T22:13:49.880Z,61.05
2022-12-01T22:16:16.206Z,61.15
2022-12-01T22:18:42.484Z,61.13
2022-12-01T22:21:08.749Z,61.20
2022-12-01T22:23:34.994Z,60.98
2022-12-01T22:26:01.261Z,61.05
2022-12-01T22:28:27.511Z,60.72
2022-12-01T22:30:53.804Z,60.72
2022-12-01T22:33:20.099Z,60.69
2022-12-01T22:35:46.361Z,60.96
2022-12-01T22:38:12.613Z,60.89
2022-12-01T22:40:38.870Z,60.80
2022-12-01T22:43:08.499Z,60.93
2022-12-01T22:45:38.789Z,61.25
2022-12-01T22:48:05.039Z,61.13
2022-12-01T22:50:31.279Z,60.55
2022-12-01T22:52:57.533Z,60.51
2022-12-01T22:55:23.807Z,60.23
2022-12-01T22:57:50.072Z,59.72
2022-12-01T23:00:16.345Z,60.25
2022-12-01T23:02:42.656Z,60.07
2022-12-01T23:05:08.954Z,60.29
2022-12-01T23:07:35.490Z,60.44
2022-12-01T23:10:01.851Z,60.95
2022-12-01T23:12:28.788Z,60.95
2022-12-01T23:14:55.216Z,60.79
2022-12-01T23:17:21.516Z,60.68
2022-12-01T23:19:47.786Z,61.03
2022-12-01T23:22:14.063Z,60.69
2022-12-01T23:24:40.305Z,61.07
2022-12-01T23:27:06.591Z,60.87
2022-12-01T23:29:32.849Z,60.86
2022-12-01T23:31:59.130Z,60.39
2022-12-01T23:34:25.525Z,60.86
2022-12-01T23:36:51.766Z,61.21
2022-12-01T23:39:18.011Z,61.13
2022-12-01T23:41:44.274Z,60.95
2022-12-01T23:44:10.518Z,61.46
2022-12-01T23:46:36.831Z,61.00
2022-12-01T23:49:03.114Z,61.25
2022-12-01T23:51:29.388Z,61.17
2022-12-01T23:53:55.638Z,60.22
2022-12-01T23:56:21.899Z,60.51
2022-12-01T23:58:48.189Z,60.94
